sensor_id;sensor_type;location;lat;lon;timestamp;P1;durP1;ratioP1;P2;durP2;ratioP2
26536;SDS011;14204;51.262;5.488;2023-05-10T00:02:09;30.58;;;16.30;;
26536;SDS011;14204;51.262;5.488;2023-05-10T00:04:34;31.10;;;16.92;;
26536;SDS011;14204;51.262;5.488;2023-05-10T00:07:00;26.70;;;16.40;;
26536;SDS011;14204;51.262;5.488;2023-05-10T00:09:26;34.28;;;16.98;;
26536;SDS011;14204;51.262;5.488;2023-05-10T00:11:52;25.92;;;16.05;;
26536;SDS011;14204;51.262;5.488;2023-05-10T00:14:18;28.33;;;16.33;;
26536;SDS011;14204;51.262;5.488;2023-05-10T00:16:44;27.17;;;15.43;;
26536;SDS011;14204;51.262;5.488;2023-05-10T00:19:10;25.83;;;15.73;;
26536;SDS011;14204;51.262;5.488;2023-05-10T00:21:36;28.23;;;16.17;;
26536;SDS011;14204;51.262;5.488;2023-05-10T00:24:01;27.60;;;17.10;;
26536;SDS011;14204;51.262;5.488;2023-05-10T00:26:27;32.33;;;16.80;;
26536;SDS011;14204;51.262;5.488;2023-05-10T00:28:53;53.17;;;23.33;;
26536;SDS011;14204;51.262;5.488;2023-05-10T00:31:18;36.10;;;19.13;;
26536;SDS011;14204;51.262;5.488;2023-05-10T00:33:44;34.95;;;18.83;;
26536;SDS011;14204;51.262;5.488;2023-05-10T00:36:10;42.00;;;21.33;;
26536;SDS011;14204;51.262;5.488;2023-05-10T00:38:36;36.63;;;21.52;;
26536;SDS011;14204;51.262;5.488;2023-05-10T00:41:02;37.78;;;22.33;;
26536;SDS011;14204;51.262;5.488;2023-05-10T00:43:28;45.75;;;22.73;;
26536;SDS011;14204;51.262;5.488;2023-05-10T00:45:54;37.78;;;22.83;;
26536;SDS011;14204;51.262;5.488;2023-05-10T00:48:20;48.38;;;24.70;;
26536;SDS011;14204;51.262;5.488;2023-05-10T00:50:46;47.20;;;25.55;;
26536;SDS011;14204;51.262;5.488;2023-05-10T00:53:12;52.97;;;26.27;;
26536;SDS011;14204;51.262;5.488;2023-05-10T00:55:39;39.97;;;24.48;;
26536;SDS011;14204;51.262;5.488;2023-05-10T00:58:05;41.72;;;24.55;;
26536;SDS011;14204;51.262;5.488;2023-05-10T01:00:32;46.55;;;25.35;;
26536;SDS011;14204;51.262;5.488;2023-05-10T01:02:58;47.40;;;25.75;;
26536;SDS011;14204;51.262;5.488;2023-05-10T01:05:24;82.32;;;33.38;;
26536;SDS011;14204;51.262;5.488;2023-05-10T01:07:52;52.05;;;27.85;;
26536;SDS011;14204;51.262;5.488;2023-05-10T01:10:18;46.25;;;27.27;;
26536;SDS011;14204;51.262;5.488;2023-05-10T01:12:44;55.58;;;29.25;;
26536;SDS011;14204;51.262;5.488;2023-05-10T01:15:11;61.67;;;31.98;;
26536;SDS011;14204;51.262;5.488;2023-05-10T01:17:39;59.97;;;29.48;;
26536;SDS011;14204;51.262;5.488;2023-05-10T01:20:07;71.25;;;31.75;;
26536;SDS011;14204;51.262;5.488;2023-05-10T01:25:30;68.22;;;35.88;;
26536;SDS011;14204;51.262;5.488;2023-05-10T01:38:59;72.68;;;35.33;;
26536;SDS011;14204;51.262;5.488;2023-05-10T01:44:29;77.22;;;37.17;;
26536;SDS011;14204;51.262;5.488;2023-05-10T01:47:40;63.58;;;33.33;;
26536;SDS011;14204;51.262;5.488;2023-05-10T01:49:54;73.45;;;34.92;;
26536;SDS011;14204;51.262;5.488;2023-05-10T01:52:30;72.63;;;34.60;;
26536;SDS011;14204;51.262;5.488;2023-05-10T01:55:06;68.65;;;32.92;;
26536;SDS011;14204;51.262;5.488;2023-05-10T01:57:34;56.30;;;31.80;;
26536;SDS011;14204;51.262;5.488;2023-05-10T02:00:04;60.90;;;32.85;;
26536;SDS011;14204;51.262;5.488;2023-05-10T02:02:33;63.95;;;31.63;;
26536;SDS011;14204;51.262;5.488;2023-05-10T02:05:02;76.40;;;34.80;;
26536;SDS011;14204;51.262;5.488;2023-05-10T02:07:30;60.53;;;33.08;;
26536;SDS011;14204;51.262;5.488;2023-05-10T02:09:58;61.47;;;32.70;;
26536;SDS011;14204;51.262;5.488;2023-05-10T02:12:25;62.92;;;33.83;;
26536;SDS011;14204;51.262;5.488;2023-05-10T02:14:53;65.55;;;35.67;;
26536;SDS011;14204;51.262;5.488;2023-05-10T02:17:20;60.78;;;33.67;;
26536;SDS011;14204;51.262;5.488;2023-05-10T02:19:47;70.97;;;37.58;;
26536;SDS011;14204;51.262;5.488;2023-05-10T02:22:14;64.72;;;34.65;;
26536;SDS011;14204;51.262;5.488;2023-05-10T02:24:42;77.45;;;38.05;;
26536;SDS011;14204;51.262;5.488;2023-05-10T02:27:09;64.22;;;35.20;;
26536;SDS011;14204;51.262;5.488;2023-05-10T02:29:36;62.45;;;34.58;;
26536;SDS011;14204;51.262;5.488;2023-05-10T02:32:02;83.90;;;36.90;;
26536;SDS011;14204;51.262;5.488;2023-05-10T02:34:29;80.38;;;38.22;;
26536;SDS011;14204;51.262;5.488;2023-05-10T02:36:56;67.22;;;34.95;;
26536;SDS011;14204;51.262;5.488;2023-05-10T02:39:22;67.40;;;34.17;;
26536;SDS011;14204;51.262;5.488;2023-05-10T02:41:50;79.97;;;37.72;;
26536;SDS011;14204;51.262;5.488;2023-05-10T02:44:19;74.82;;;35.72;;
26536;SDS011;14204;51.262;5.488;2023-05-10T02:46:47;74.95;;;35.38;;
26536;SDS011;14204;51.262;5.488;2023-05-10T02:49:13;82.97;;;35.88;;
26536;SDS011;14204;51.262;5.488;2023-05-10T02:51:44;72.85;;;36.33;;
26536;SDS011;14204;51.262;5.488;2023-05-10T02:54:18;88.68;;;38.83;;
26536;SDS011;14204;51.262;5.488;2023-05-10T02:56:53;75.28;;;34.90;;
26536;SDS011;14204;51.262;5.488;2023-05-10T02:59:23;64.35;;;30.40;;
26536;SDS011;14204;51.262;5.488;2023-05-10T03:01:48;73.50;;;34.05;;
26536;SDS011;14204;51.262;5.488;2023-05-10T03:04:14;71.22;;;34.28;;
26536;SDS011;14204;51.262;5.488;2023-05-10T03:06:41;77.22;;;34.40;;
26536;SDS011;14204;51.262;5.488;2023-05-10T03:09:07;72.10;;;33.20;;
26536;SDS011;14204;51.262;5.488;2023-05-10T03:14:30;79.35;;;35.55;;
26536;SDS011;14204;51.262;5.488;2023-05-10T03:17:29;75.10;;;33.95;;
26536;SDS011;14204;51.262;5.488;2023-05-10T03:20:02;87.15;;;37.17;;
26536;SDS011;14204;51.262;5.488;2023-05-10T03:22:32;91.40;;;38.00;;
26536;SDS011;14204;51.262;5.488;2023-05-10T03:25:04;99.30;;;39.67;;
26536;SDS011;14204;51.262;5.488;2023-05-10T03:27:31;88.95;;;39.67;;
26536;SDS011;14204;51.262;5.488;2023-05-10T03:29:58;87.40;;;38.83;;
26536;SDS011;14204;51.262;5.488;2023-05-10T03:32:26;99.88;;;41.67;;
26536;SDS011;14204;51.262;5.488;2023-05-10T03:34:55;91.13;;;38.35;;
26536;SDS011;14204;51.262;5.488;2023-05-10T03:37:21;79.93;;;37.88;;
26536;SDS011;14204;51.262;5.488;2023-05-10T03:39:46;89.75;;;38.30;;
26536;SDS011;14204;51.262;5.488;2023-05-10T03:42:12;92.72;;;38.80;;
26536;SDS011;14204;51.262;5.488;2023-05-10T03:44:41;99.13;;;40.83;;
26536;SDS011;14204;51.262;5.488;2023-05-10T03:47:06;82.88;;;38.70;;
26536;SDS011;14204;51.262;5.488;2023-05-10T03:49:32;102.93;;;39.65;;
26536;SDS011;14204;51.262;5.488;2023-05-10T03:51:58;99.57;;;42.60;;
26536;SDS011;14204;51.262;5.488;2023-05-10T03:54:23;91.53;;;40.70;;
26536;SDS011;14204;51.262;5.488;2023-05-10T03:56:49;87.85;;;38.88;;
26536;SDS011;14204;51.262;5.488;2023-05-10T03:59:15;83.72;;;35.50;;
26536;SDS011;14204;51.262;5.488;2023-05-10T04:01:40;99.03;;;39.90;;
26536;SDS011;14204;51.262;5.488;2023-05-10T04:04:06;92.65;;;38.72;;
26536;SDS011;14204;51.262;5.488;2023-05-10T04:06:32;75.82;;;35.13;;
26536;SDS011;14204;51.262;5.488;2023-05-10T04:08:58;76.95;;;33.53;;
26536;SDS011;14204;51.262;5.488;2023-05-10T04:11:25;67.13;;;33.33;;
26536;SDS011;14204;51.262;5.488;2023-05-10T04:13:51;69.28;;;31.48;;
26536;SDS011;14204;51.262;5.488;2023-05-10T04:16:17;63.65;;;32.17;;
26536;SDS011;14204;51.262;5.488;2023-05-10T04:18:42;73.00;;;32.58;;
26536;SDS011;14204;51.262;5.488;2023-05-10T04:21:14;58.30;;;29.75;;
26536;SDS011;14204;51.262;5.488;2023-05-10T04:23:40;61.15;;;29.90;;
26536;SDS011;14204;51.262;5.488;2023-05-10T04:26:06;61.28;;;30.98;;
26536;SDS011;14204;51.262;5.488;2023-05-10T04:28:32;63.90;;;31.52;;
26536;SDS011;14204;51.262;5.488;2023-05-10T04:31:01;57.78;;;29.63;;
26536;SDS011;14204;51.262;5.488;2023-05-10T04:33:28;58.60;;;28.92;;
26536;SDS011;14204;51.262;5.488;2023-05-10T04:35:53;62.70;;;31.00;;
26536;SDS011;14204;51.262;5.488;2023-05-10T04:38:19;63.08;;;31.80;;
26536;SDS011;14204;51.262;5.488;2023-05-10T04:40:45;64.72;;;30.40;;
26536;SDS011;14204;51.262;5.488;2023-05-10T04:43:10;52.65;;;28.08;;
26536;SDS011;14204;51.262;5.488;2023-05-10T04:45:36;58.42;;;30.95;;
26536;SDS011;14204;51.262;5.488;2023-05-10T04:48:02;58.92;;;30.42;;
26536;SDS011;14204;51.262;5.488;2023-05-10T04:50:27;55.80;;;28.42;;
26536;SDS011;14204;51.262;5.488;2023-05-10T04:52:53;61.58;;;32.78;;
26536;SDS011;14204;51.262;5.488;2023-05-10T04:55:19;58.45;;;30.27;;
26536;SDS011;14204;51.262;5.488;2023-05-10T04:57:45;52.60;;;30.13;;
26536;SDS011;14204;51.262;5.488;2023-05-10T05:00:11;59.75;;;32.17;;
26536;SDS011;14204;51.262;5.488;2023-05-10T05:02:38;64.00;;;31.55;;
26536;SDS011;14204;51.262;5.488;2023-05-10T05:05:03;66.82;;;34.20;;
26536;SDS011;14204;51.262;5.488;2023-05-10T05:07:30;66.30;;;33.75;;
26536;SDS011;14204;51.262;5.488;2023-05-10T05:09:55;65.82;;;34.25;;
26536;SDS011;14204;51.262;5.488;2023-05-10T05:12:21;73.28;;;34.78;;
26536;SDS011;14204;51.262;5.488;2023-05-10T05:14:47;65.78;;;33.33;;
26536;SDS011;14204;51.262;5.488;2023-05-10T05:17:12;70.50;;;36.83;;
26536;SDS011;14204;51.262;5.488;2023-05-10T05:19:38;71.80;;;34.50;;
26536;SDS011;14204;51.262;5.488;2023-05-10T05:22:06;70.55;;;35.05;;
26536;SDS011;14204;51.262;5.488;2023-05-10T05:24:36;67.93;;;37.35;;
26536;SDS011;14204;51.262;5.488;2023-05-10T05:27:05;63.65;;;34.58;;
26536;SDS011;14204;51.262;5.488;2023-05-10T05:29:31;71.88;;;36.67;;
26536;SDS011;14204;51.262;5.488;2023-05-10T05:31:57;67.63;;;34.42;;
26536;SDS011;14204;51.262;5.488;2023-05-10T05:34:22;64.05;;;35.10;;
26536;SDS011;14204;51.262;5.488;2023-05-10T05:36:49;67.15;;;35.72;;
26536;SDS011;14204;51.262;5.488;2023-05-10T05:39:15;56.55;;;31.20;;
26536;SDS011;14204;51.262;5.488;2023-05-10T05:41:41;59.33;;;32.38;;
26536;SDS011;14204;51.262;5.488;2023-05-10T05:44:07;64.80;;;33.90;;
26536;SDS011;14204;51.262;5.488;2023-05-10T05:46:33;57.38;;;30.38;;
26536;SDS011;14204;51.262;5.488;2023-05-10T05:48:58;57.28;;;31.02;;
26536;SDS011;14204;51.262;5.488;2023-05-10T05:51:24;54.70;;;31.55;;
26536;SDS011;14204;51.262;5.488;2023-05-10T05:53:50;41.92;;;24.88;;
26536;SDS011;14204;51.262;5.488;2023-05-10T05:56:16;53.83;;;28.50;;
26536;SDS011;14204;51.262;5.488;2023-05-10T05:58:49;55.25;;;30.92;;
26536;SDS011;14204;51.262;5.488;2023-05-10T06:01:17;58.03;;;28.65;;
26536;SDS011;14204;51.262;5.488;2023-05-10T06:03:43;54.05;;;30.75;;
26536;SDS011;14204;51.262;5.488;2023-05-10T06:06:08;52.50;;;30.90;;
26536;SDS011;14204;51.262;5.488;2023-05-10T06:08:34;53.08;;;30.98;;
26536;SDS011;14204;51.262;5.488;2023-05-10T06:11:00;51.90;;;28.42;;
26536;SDS011;14204;51.262;5.488;2023-05-10T06:13:26;54.45;;;29.38;;
26536;SDS011;14204;51.262;5.488;2023-05-10T06:15:57;47.42;;;27.45;;
26536;SDS011;14204;51.262;5.488;2023-05-10T06:18:26;43.88;;;27.73;;
26536;SDS011;14204;51.262;5.488;2023-05-10T06:20:52;49.50;;;27.27;;
26536;SDS011;14204;51.262;5.488;2023-05-10T06:23:17;51.10;;;28.25;;
26536;SDS011;14204;51.262;5.488;2023-05-10T06:25:43;47.38;;;28.15;;
26536;SDS011;14204;51.262;5.488;2023-05-10T06:28:09;48.55;;;27.55;;
26536;SDS011;14204;51.262;5.488;2023-05-10T06:30:35;54.78;;;28.92;;
26536;SDS011;14204;51.262;5.488;2023-05-10T06:33:01;54.53;;;28.45;;
26536;SDS011;14204;51.262;5.488;2023-05-10T06:35:28;50.40;;;29.05;;
26536;SDS011;14204;51.262;5.488;2023-05-10T06:37:54;52.38;;;27.50;;
26536;SDS011;14204;51.262;5.488;2023-05-10T06:40:20;52.80;;;30.35;;
26536;SDS011;14204;51.262;5.488;2023-05-10T06:42:46;49.85;;;28.23;;
26536;SDS011;14204;51.262;5.488;2023-05-10T06:45:13;54.80;;;29.17;;
26536;SDS011;14204;51.262;5.488;2023-05-10T06:47:40;49.35;;;28.60;;
26536;SDS011;14204;51.262;5.488;2023-05-10T06:50:06;54.20;;;30.52;;
26536;SDS011;14204;51.262;5.488;2023-05-10T06:52:33;51.63;;;32.13;;
26536;SDS011;14204;51.262;5.488;2023-05-10T06:54:58;51.20;;;28.42;;
26536;SDS011;14204;51.262;5.488;2023-05-10T06:57:25;54.63;;;29.45;;
26536;SDS011;14204;51.262;5.488;2023-05-10T06:59:51;51.63;;;29.15;;
26536;SDS011;14204;51.262;5.488;2023-05-10T07:02:17;53.00;;;29.90;;
26536;SDS011;14204;51.262;5.488;2023-05-10T07:04:42;43.88;;;24.58;;
26536;SDS011;14204;51.262;5.488;2023-05-10T07:07:08;41.25;;;23.27;;
26536;SDS011;14204;51.262;5.488;2023-05-10T07:09:34;33.97;;;22.30;;
26536;SDS011;14204;51.262;5.488;2023-05-10T07:12:00;38.03;;;22.65;;
26536;SDS011;14204;51.262;5.488;2023-05-10T07:14:26;43.33;;;24.55;;
26536;SDS011;14204;51.262;5.488;2023-05-10T07:16:52;42.20;;;23.13;;
26536;SDS011;14204;51.262;5.488;2023-05-10T07:19:18;32.90;;;21.35;;
26536;SDS011;14204;51.262;5.488;2023-05-10T07:21:44;37.15;;;20.58;;
26536;SDS011;14204;51.262;5.488;2023-05-10T07:24:10;35.22;;;20.00;;
26536;SDS011;14204;51.262;5.488;2023-05-10T07:26:36;31.60;;;20.25;;
26536;SDS011;14204;51.262;5.488;2023-05-10T07:29:02;32.63;;;18.45;;
26536;SDS011;14204;51.262;5.488;2023-05-10T07:31:28;33.67;;;17.30;;
26536;SDS011;14204;51.262;5.488;2023-05-10T07:33:54;30.30;;;18.48;;
26536;SDS011;14204;51.262;5.488;2023-05-10T07:36:19;32.33;;;17.00;;
26536;SDS011;14204;51.262;5.488;2023-05-10T07:38:45;28.00;;;16.63;;
26536;SDS011;14204;51.262;5.488;2023-05-10T07:41:11;31.58;;;19.25;;
26536;SDS011;14204;51.262;5.488;2023-05-10T07:43:37;27.02;;;17.58;;
26536;SDS011;14204;51.262;5.488;2023-05-10T07:46:03;26.30;;;17.85;;
26536;SDS011;14204;51.262;5.488;2023-05-10T07:48:29;28.27;;;18.33;;
26536;SDS011;14204;51.262;5.488;2023-05-10T07:50:54;29.98;;;18.23;;
26536;SDS011;14204;51.262;5.488;2023-05-10T07:53:20;30.00;;;17.05;;
26536;SDS011;14204;51.262;5.488;2023-05-10T07:55:54;29.00;;;19.52;;
26536;SDS011;14204;51.262;5.488;2023-05-10T07:58:23;33.92;;;20.23;;
26536;SDS011;14204;51.262;5.488;2023-05-10T08:00:49;30.45;;;19.15;;
26536;SDS011;14204;51.262;5.488;2023-05-10T08:03:15;32.70;;;19.88;;
26536;SDS011;14204;51.262;5.488;2023-05-10T08:05:41;29.50;;;19.00;;
26536;SDS011;14204;51.262;5.488;2023-05-10T08:08:07;35.33;;;20.45;;
26536;SDS011;14204;51.262;5.488;2023-05-10T08:10:32;31.83;;;21.60;;
26536;SDS011;14204;51.262;5.488;2023-05-10T08:12:58;35.03;;;21.95;;
26536;SDS011;14204;51.262;5.488;2023-05-10T08:15:24;36.85;;;22.77;;
26536;SDS011;14204;51.262;5.488;2023-05-10T08:17:51;32.97;;;20.75;;
26536;SDS011;14204;51.262;5.488;2023-05-10T08:20:17;33.40;;;20.98;;
26536;SDS011;14204;51.262;5.488;2023-05-10T08:22:47;28.40;;;18.83;;
26536;SDS011;14204;51.262;5.488;2023-05-10T08:25:12;25.02;;;18.13;;
26536;SDS011;14204;51.262;5.488;2023-05-10T08:27:38;33.92;;;19.80;;
26536;SDS011;14204;51.262;5.488;2023-05-10T08:30:04;24.45;;;17.52;;
26536;SDS011;14204;51.262;5.488;2023-05-10T08:32:30;28.98;;;17.48;;
26536;SDS011;14204;51.262;5.488;2023-05-10T08:34:56;28.30;;;18.90;;
26536;SDS011;14204;51.262;5.488;2023-05-10T08:37:22;30.85;;;17.55;;
26536;SDS011;14204;51.262;5.488;2023-05-10T08:39:48;21.83;;;14.95;;
26536;SDS011;14204;51.262;5.488;2023-05-10T08:42:15;21.25;;;13.50;;
26536;SDS011;14204;51.262;5.488;2023-05-10T08:44:45;17.90;;;10.90;;
26536;SDS011;14204;51.262;5.488;2023-05-10T08:47:15;21.50;;;11.63;;
26536;SDS011;14204;51.262;5.488;2023-05-10T08:49:43;15.25;;;10.68;;
26536;SDS011;14204;51.262;5.488;2023-05-10T08:52:13;13.50;;;9.48;;
26536;SDS011;14204;51.262;5.488;2023-05-10T08:54:41;14.48;;;9.65;;
26536;SDS011;14204;51.262;5.488;2023-05-10T08:57:08;12.80;;;8.75;;
26536;SDS011;14204;51.262;5.488;2023-05-10T08:59:33;9.75;;;8.68;;
26536;SDS011;14204;51.262;5.488;2023-05-10T09:01:59;10.40;;;9.10;;
26536;SDS011;14204;51.262;5.488;2023-05-10T09:04:27;13.77;;;9.40;;
26536;SDS011;14204;51.262;5.488;2023-05-10T09:06:54;12.00;;;9.88;;
26536;SDS011;14204;51.262;5.488;2023-05-10T09:09:20;12.55;;;8.50;;
26536;SDS011;14204;51.262;5.488;2023-05-10T09:11:47;10.75;;;7.43;;
26536;SDS011;14204;51.262;5.488;2023-05-10T09:14:13;8.30;;;6.47;;
26536;SDS011;14204;51.262;5.488;2023-05-10T09:16:40;9.55;;;6.78;;
26536;SDS011;14204;51.262;5.488;2023-05-10T09:19:06;8.23;;;5.45;;
26536;SDS011;14204;51.262;5.488;2023-05-10T09:21:34;10.10;;;5.32;;
26536;SDS011;14204;51.262;5.488;2023-05-10T09:24:04;6.30;;;5.57;;
26536;SDS011;14204;51.262;5.488;2023-05-10T09:26:34;5.35;;;4.80;;
26536;SDS011;14204;51.262;5.488;2023-05-10T09:29:01;6.63;;;5.93;;
26536;SDS011;14204;51.262;5.488;2023-05-10T09:31:44;5.28;;;4.65;;
26536;SDS011;14204;51.262;5.488;2023-05-10T09:34:15;6.55;;;5.50;;
26536;SDS011;14204;51.262;5.488;2023-05-10T09:36:56;8.07;;;4.45;;
26536;SDS011;14204;51.262;5.488;2023-05-10T09:39:32;6.70;;;4.32;;
26536;SDS011;14204;51.262;5.488;2023-05-10T09:42:02;4.50;;;3.72;;
26536;SDS011;14204;51.262;5.488;2023-05-10T09:44:30;4.43;;;3.33;;
26536;SDS011;14204;51.262;5.488;2023-05-10T09:46:56;4.38;;;3.97;;
26536;SDS011;14204;51.262;5.488;2023-05-10T09:49:22;7.15;;;4.80;;
26536;SDS011;14204;51.262;5.488;2023-05-10T09:51:59;8.60;;;5.57;;
26536;SDS011;14204;51.262;5.488;2023-05-10T09:54:26;11.52;;;7.15;;
26536;SDS011;14204;51.262;5.488;2023-05-10T09:56:52;9.95;;;8.05;;
26536;SDS011;14204;51.262;5.488;2023-05-10T09:59:17;12.40;;;8.68;;
26536;SDS011;14204;51.262;5.488;2023-05-10T10:01:48;13.85;;;9.18;;
26536;SDS011;14204;51.262;5.488;2023-05-10T10:04:16;16.02;;;11.90;;
26536;SDS011;14204;51.262;5.488;2023-05-10T10:06:42;18.80;;;13.68;;
26536;SDS011;14204;51.262;5.488;2023-05-10T10:09:08;21.80;;;15.18;;
26536;SDS011;14204;51.262;5.488;2023-05-10T10:11:35;26.17;;;18.23;;
26536;SDS011;14204;51.262;5.488;2023-05-10T10:14:01;31.98;;;21.85;;
26536;SDS011;14204;51.262;5.488;2023-05-10T10:16:30;30.90;;;24.25;;
26536;SDS011;14204;51.262;5.488;2023-05-10T10:18:57;33.75;;;25.25;;
26536;SDS011;14204;51.262;5.488;2023-05-10T10:21:23;32.10;;;24.67;;
26536;SDS011;14204;51.262;5.488;2023-05-10T10:23:50;34.70;;;25.52;;
26536;SDS011;14204;51.262;5.488;2023-05-10T10:26:17;33.95;;;25.75;;
26536;SDS011;14204;51.262;5.488;2023-05-10T10:29:01;30.17;;;22.00;;
26536;SDS011;14204;51.262;5.488;2023-05-10T10:34:45;31.20;;;23.02;;
26536;SDS011;14204;51.262;5.488;2023-05-10T10:37:12;30.98;;;23.58;;
26536;SDS011;14204;51.262;5.488;2023-05-10T10:39:37;34.00;;;24.45;;
26536;SDS011;14204;51.262;5.488;2023-05-10T10:42:03;36.40;;;25.02;;
26536;SDS011;14204;51.262;5.488;2023-05-10T10:49:25;29.65;;;23.60;;
26536;SDS011;14204;51.262;5.488;2023-05-10T10:54:41;27.90;;;21.27;;
26536;SDS011;14204;51.262;5.488;2023-05-10T10:57:14;29.90;;;23.55;;
26536;SDS011;14204;51.262;5.488;2023-05-10T10:59:43;28.67;;;20.52;;
26536;SDS011;14204;51.262;5.488;2023-05-10T11:02:09;25.83;;;18.13;;
26536;SDS011;14204;51.262;5.488;2023-05-10T11:04:42;23.67;;;18.33;;
26536;SDS011;14204;51.262;5.488;2023-05-10T11:07:17;26.45;;;19.55;;
26536;SDS011;14204;51.262;5.488;2023-05-10T11:09:46;25.20;;;19.55;;
26536;SDS011;14204;51.262;5.488;2023-05-10T11:12:12;24.23;;;18.50;;
26536;SDS011;14204;51.262;5.488;2023-05-10T11:14:38;28.00;;;18.58;;
26536;SDS011;14204;51.262;5.488;2023-05-10T11:22:51;26.10;;;17.40;;
26536;SDS011;14204;51.262;5.488;2023-05-10T11:25:18;26.50;;;17.42;;
26536;SDS011;14204;51.262;5.488;2023-05-10T11:27:44;26.77;;;19.60;;
26536;SDS011;14204;51.262;5.488;2023-05-10T11:30:12;25.20;;;16.85;;
26536;SDS011;14204;51.262;5.488;2023-05-10T11:32:40;21.13;;;16.38;;
26536;SDS011;14204;51.262;5.488;2023-05-10T11:35:09;26.10;;;16.95;;
26536;SDS011;14204;51.262;5.488;2023-05-10T11:37:36;25.50;;;17.23;;
26536;SDS011;14204;51.262;5.488;2023-05-10T11:40:07;22.52;;;16.52;;
26536;SDS011;14204;51.262;5.488;2023-05-10T11:42:37;24.15;;;17.50;;
26536;SDS011;14204;51.262;5.488;2023-05-10T11:45:03;24.02;;;15.75;;
26536;SDS011;14204;51.262;5.488;2023-05-10T11:47:30;23.63;;;16.83;;
26536;SDS011;14204;51.262;5.488;2023-05-10T11:49:55;26.23;;;19.30;;
26536;SDS011;14204;51.262;5.488;2023-05-10T11:52:23;21.58;;;16.08;;
26536;SDS011;14204;51.262;5.488;2023-05-10T11:54:52;22.95;;;16.85;;
26536;SDS011;14204;51.262;5.488;2023-05-10T11:57:19;27.10;;;18.20;;
26536;SDS011;14204;51.262;5.488;2023-05-10T11:59:46;24.45;;;17.23;;
26536;SDS011;14204;51.262;5.488;2023-05-10T12:02:13;23.30;;;17.33;;
26536;SDS011;14204;51.262;5.488;2023-05-10T12:04:39;24.90;;;17.83;;
26536;SDS011;14204;51.262;5.488;2023-05-10T12:07:05;24.42;;;16.35;;
26536;SDS011;14204;51.262;5.488;2023-05-10T12:09:31;23.95;;;17.10;;
26536;SDS011;14204;51.262;5.488;2023-05-10T12:11:57;20.52;;;15.07;;
26536;SDS011;14204;51.262;5.488;2023-05-10T12:14:23;22.23;;;13.88;;
26536;SDS011;14204;51.262;5.488;2023-05-10T12:16:49;19.83;;;13.18;;
26536;SDS011;14204;51.262;5.488;2023-05-10T12:19:19;20.83;;;13.57;;
26536;SDS011;14204;51.262;5.488;2023-05-10T12:21:47;20.52;;;13.27;;
26536;SDS011;14204;51.262;5.488;2023-05-10T12:24:13;15.27;;;11.32;;
26536;SDS011;14204;51.262;5.488;2023-05-10T12:26:42;18.48;;;12.52;;
26536;SDS011;14204;51.262;5.488;2023-05-10T12:31:53;14.27;;;10.15;;
26536;SDS011;14204;51.262;5.488;2023-05-10T12:37:07;15.45;;;10.27;;
26536;SDS011;14204;51.262;5.488;2023-05-10T12:39:42;18.10;;;9.90;;
26536;SDS011;14204;51.262;5.488;2023-05-10T12:42:17;15.95;;;10.80;;
26536;SDS011;14204;51.262;5.488;2023-05-10T12:44:46;15.55;;;10.65;;
26536;SDS011;14204;51.262;5.488;2023-05-10T12:47:12;16.80;;;11.13;;
26536;SDS011;14204;51.262;5.488;2023-05-10T12:49:37;18.83;;;12.00;;
26536;SDS011;14204;51.262;5.488;2023-05-10T12:52:03;15.95;;;11.30;;
26536;SDS011;14204;51.262;5.488;2023-05-10T12:54:29;15.85;;;12.25;;
26536;SDS011;14204;51.262;5.488;2023-05-10T12:56:55;17.70;;;11.45;;
26536;SDS011;14204;51.262;5.488;2023-05-10T12:59:20;16.45;;;12.25;;
26536;SDS011;14204;51.262;5.488;2023-05-10T13:01:47;18.65;;;12.15;;
26536;SDS011;14204;51.262;5.488;2023-05-10T13:04:13;16.80;;;11.60;;
26536;SDS011;14204;51.262;5.488;2023-05-10T13:06:39;15.52;;;12.38;;
26536;SDS011;14204;51.262;5.488;2023-05-10T13:09:04;17.35;;;11.45;;
26536;SDS011;14204;51.262;5.488;2023-05-10T13:11:30;15.35;;;11.80;;
26536;SDS011;14204;51.262;5.488;2023-05-10T13:13:56;12.43;;;10.93;;
26536;SDS011;14204;51.262;5.488;2023-05-10T13:16:22;15.52;;;11.15;;
26536;SDS011;14204;51.262;5.488;2023-05-10T13:18:48;16.63;;;9.80;;
26536;SDS011;14204;51.262;5.488;2023-05-10T13:21:13;15.07;;;10.73;;
26536;SDS011;14204;51.262;5.488;2023-05-10T13:23:39;13.85;;;9.73;;
26536;SDS011;14204;51.262;5.488;2023-05-10T13:26:05;12.00;;;9.27;;
26536;SDS011;14204;51.262;5.488;2023-05-10T13:28:30;11.75;;;9.48;;
26536;SDS011;14204;51.262;5.488;2023-05-10T13:30:56;12.45;;;9.30;;
26536;SDS011;14204;51.262;5.488;2023-05-10T13:33:22;16.02;;;8.88;;
26536;SDS011;14204;51.262;5.488;2023-05-10T13:35:48;11.25;;;9.57;;
26536;SDS011;14204;51.262;5.488;2023-05-10T13:38:14;13.20;;;9.55;;
26536;SDS011;14204;51.262;5.488;2023-05-10T13:40:39;11.98;;;9.80;;
26536;SDS011;14204;51.262;5.488;2023-05-10T13:43:05;14.35;;;9.98;;
26536;SDS011;14204;51.262;5.488;2023-05-10T13:45:31;12.57;;;9.65;;
26536;SDS011;14204;51.262;5.488;2023-05-10T13:47:57;13.23;;;9.60;;
26536;SDS011;14204;51.262;5.488;2023-05-10T13:50:23;13.50;;;9.15;;
26536;SDS011;14204;51.262;5.488;2023-05-10T13:52:48;11.48;;;9.57;;
26536;SDS011;14204;51.262;5.488;2023-05-10T13:55:14;15.13;;;9.52;;
26536;SDS011;14204;51.262;5.488;2023-05-10T13:57:40;13.50;;;9.45;;
26536;SDS011;14204;51.262;5.488;2023-05-10T14:00:06;11.93;;;9.20;;
26536;SDS011;14204;51.262;5.488;2023-05-10T14:02:33;11.63;;;7.93;;
26536;SDS011;14204;51.262;5.488;2023-05-10T14:04:58;10.98;;;7.28;;
26536;SDS011;14204;51.262;5.488;2023-05-10T14:07:25;8.90;;;7.60;;
26536;SDS011;14204;51.262;5.488;2023-05-10T14:09:50;9.07;;;6.97;;
26536;SDS011;14204;51.262;5.488;2023-05-10T14:12:16;9.10;;;6.68;;
26536;SDS011;14204;51.262;5.488;2023-05-10T14:14:42;8.05;;;6.63;;
26536;SDS011;14204;51.262;5.488;2023-05-10T14:17:08;9.07;;;5.63;;
26536;SDS011;14204;51.262;5.488;2023-05-10T14:19:33;15.98;;;5.88;;
26536;SDS011;14204;51.262;5.488;2023-05-10T14:21:59;8.80;;;6.45;;
26536;SDS011;14204;51.262;5.488;2023-05-10T14:24:25;10.07;;;6.13;;
26536;SDS011;14204;51.262;5.488;2023-05-10T14:26:51;12.82;;;6.93;;
26536;SDS011;14204;51.262;5.488;2023-05-10T14:29:19;9.88;;;7.07;;
26536;SDS011;14204;51.262;5.488;2023-05-10T14:31:46;8.43;;;5.93;;
26536;SDS011;14204;51.262;5.488;2023-05-10T14:34:11;12.77;;;6.13;;
26536;SDS011;14204;51.262;5.488;2023-05-10T14:36:37;10.07;;;6.90;;
26536;SDS011;14204;51.262;5.488;2023-05-10T14:39:03;8.88;;;6.78;;
26536;SDS011;14204;51.262;5.488;2023-05-10T14:41:29;14.18;;;7.05;;
26536;SDS011;14204;51.262;5.488;2023-05-10T14:43:55;12.75;;;7.43;;
26536;SDS011;14204;51.262;5.488;2023-05-10T14:46:21;12.38;;;7.90;;
26536;SDS011;14204;51.262;5.488;2023-05-10T14:48:46;8.63;;;7.70;;
26536;SDS011;14204;51.262;5.488;2023-05-10T14:51:12;8.93;;;7.32;;
26536;SDS011;14204;51.262;5.488;2023-05-10T14:53:38;8.60;;;6.90;;
26536;SDS011;14204;51.262;5.488;2023-05-10T14:56:04;11.65;;;6.70;;
26536;SDS011;14204;51.262;5.488;2023-05-10T14:58:30;9.57;;;7.30;;
26536;SDS011;14204;51.262;5.488;2023-05-10T15:00:56;10.43;;;7.40;;
26536;SDS011;14204;51.262;5.488;2023-05-10T15:03:22;8.30;;;7.28;;
26536;SDS011;14204;51.262;5.488;2023-05-10T15:05:48;9.23;;;6.85;;
26536;SDS011;14204;51.262;5.488;2023-05-10T15:08:13;10.15;;;7.00;;